createdAt,value
2022-10-20T00:00:20.180Z,17.45
2022-10-20T00:03:09.898Z,17.31
2022-10-20T00:05:42.511Z,17.18
2022-10-20T00:08:12.177Z,17.37
2022-10-20T00:10:42.228Z,17.19
2022-10-20T00:13:11.994Z,17.40
2022-10-20T00:15:41.498Z,18.20
2022-10-20T00:18:11.118Z,17.58
2022-10-20T00:20:42.874Z,18.18
2022-10-20T00:23:12.427Z,17.52
2022-10-20T00:25:42.548Z,17.46
2022-10-20T00:28:12.219Z,17.46
2022-10-20T00:30:41.692Z,18.13
2022-10-20T00:33:11.279Z,17.45
2022-10-20T00:35:41.199Z,17.21
2022-10-20T00:38:12.251Z,17.41
2022-10-20T00:40:42.450Z,16.85
2022-10-20T00:43:13.769Z,16.86
2022-10-20T00:45:45.043Z,16.58
2022-10-20T00:48:17.375Z,16.86
2022-10-20T00:50:52.592Z,16.88
2022-10-20T00:53:26.289Z,17.16
2022-10-20T00:55:59.718Z,16.99
2022-10-20T00:58:30.449Z,16.96
2022-10-20T01:01:01.719Z,17.04
2022-10-20T01:03:41.317Z,17.24
2022-10-20T01:06:11.354Z,17.06
2022-10-20T01:08:42.988Z,17.17
2022-10-20T01:11:20.114Z,17.14
2022-10-20T01:14:09.668Z,17.33
2022-10-20T01:16:47.387Z,17.11
2022-10-20T01:19:38.454Z,17.11
2022-10-20T01:22:24.363Z,16.98
2022-10-20T01:25:19.811Z,17.14
2022-10-20T01:28:05.836Z,17.00
2022-10-20T01:30:43.098Z,17.05
2022-10-20T01:33:21.833Z,17.09
2022-10-20T01:54:57.591Z,17.04
2022-10-20T01:57:40.150Z,16.79
2022-10-20T02:00:12.672Z,16.91
2022-10-20T02:03:01.578Z,16.62
2022-10-20T02:05:53.191Z,16.77
2022-10-20T02:08:31.536Z,16.77
2022-10-20T02:11:05.926Z,16.92
2022-10-20T02:13:40.009Z,16.51
2022-10-20T02:16:15.027Z,16.50
2022-10-20T02:18:48.245Z,16.65
2022-10-20T02:21:18.392Z,16.59
2022-10-20T02:23:51.391Z,16.60
2022-10-20T02:26:26.227Z,16.11
2022-10-20T02:29:05.527Z,16.53
2022-10-20T02:31:35.353Z,16.71
2022-10-20T02:34:05.852Z,16.26
2022-10-20T02:36:40.078Z,16.67
2022-10-20T02:39:10.694Z,16.57
2022-10-20T02:41:41.758Z,16.55
2022-10-20T02:44:11.791Z,16.46
2022-10-20T02:46:41.396Z,15.99
2022-10-20T02:49:11.068Z,17.17
2022-10-20T02:51:40.739Z,16.67
2022-10-20T02:54:10.273Z,17.54
2022-10-20T02:56:41.532Z,17.22
2022-10-20T02:59:15.322Z,17.19
2022-10-20T03:01:45.113Z,16.80
2022-10-20T03:04:15.721Z,16.95
2022-10-20T03:06:45.585Z,16.95
2022-10-20T03:09:15.763Z,16.40
2022-10-20T03:11:46.770Z,16.52
2022-10-20T03:14:17.016Z,16.23
2022-10-20T03:16:46.263Z,16.46
2022-10-20T03:19:16.465Z,16.66
2022-10-20T03:21:46.524Z,17.04
2022-10-20T03:24:16.878Z,17.09
2022-10-20T03:26:48.062Z,17.14
2022-10-20T03:29:18.314Z,17.10
2022-10-20T03:34:22.996Z,16.91
2022-10-20T03:36:52.703Z,17.02
2022-10-20T03:39:22.813Z,16.84
2022-10-20T03:41:53.874Z,17.19
2022-10-20T03:44:23.871Z,17.32
2022-10-20T03:46:53.219Z,18.13
2022-10-20T03:49:23.486Z,17.24
2022-10-20T03:51:52.841Z,18.13
2022-10-20T03:54:23.536Z,17.55
2022-10-20T03:56:56.061Z,17.43
2022-10-20T03:59:29.516Z,17.08
2022-10-20T04:02:00.604Z,17.39
2022-10-20T04:04:31.097Z,17.38
2022-10-20T04:07:00.853Z,17.32
2022-10-20T04:09:30.379Z,17.94
2022-10-20T04:12:01.672Z,17.44
2022-10-20T04:14:32.008Z,17.38
2022-10-20T04:17:02.095Z,17.19
2022-10-20T04:19:32.200Z,17.47
2022-10-20T04:22:02.370Z,17.52
2022-10-20T04:24:32.368Z,17.61
2022-10-20T04:27:03.670Z,17.35
2022-10-20T04:29:33.787Z,17.19
2022-10-20T04:32:03.566Z,17.24
2022-10-20T04:34:33.854Z,17.46
2022-10-20T04:37:03.227Z,18.15
2022-10-20T04:39:33.381Z,17.50
2022-10-20T04:42:04.554Z,17.16
2022-10-20T04:44:34.545Z,17.46
2022-10-20T04:47:04.180Z,17.33
2022-10-20T04:49:34.461Z,17.32
2022-10-20T04:52:22.814Z,17.20
2022-10-20T05:14:08.142Z,17.03
2022-10-20T05:16:38.321Z,17.28
2022-10-20T05:19:08.719Z,17.22
2022-10-20T05:21:39.017Z,17.19
2022-10-20T05:24:09.713Z,17.17
2022-10-20T05:26:40.323Z,17.32
2022-10-20T05:29:13.648Z,17.26
2022-10-20T05:31:45.373Z,17.26
2022-10-20T05:34:15.820Z,17.61
2022-10-20T05:36:46.803Z,17.90
2022-10-20T05:39:20.369Z,18.16
2022-10-20T05:41:51.180Z,18.22
2022-10-20T05:44:24.767Z,17.74
2022-10-20T05:46:56.781Z,17.74
2022-10-20T05:49:28.770Z,17.09
2022-10-20T05:52:02.019Z,17.14
2022-10-20T05:54:33.392Z,17.30
2022-10-20T05:57:03.500Z,17.20
2022-10-20T05:59:35.294Z,16.56
2022-10-20T06:02:05.400Z,16.68
2022-10-20T06:04:35.777Z,16.81
2022-10-20T06:07:07.385Z,17.09
2022-10-20T06:09:37.785Z,17.36
2022-10-20T06:14:46.122Z,17.27
2022-10-20T06:17:16.046Z,16.98
2022-10-20T06:19:46.123Z,16.30
2022-10-20T06:22:15.815Z,16.79
2022-10-20T06:24:45.546Z,17.24
2022-10-20T06:27:15.479Z,16.63
2022-10-20T06:29:47.326Z,16.30
2022-10-20T06:32:18.755Z,16.48
2022-10-20T06:34:54.387Z,16.25
2022-10-20T06:37:24.222Z,16.35
2022-10-20T06:39:55.790Z,16.74
2022-10-20T06:42:25.410Z,16.36
2022-10-20T06:44:59.086Z,16.56
2022-10-20T06:47:31.537Z,16.69
2022-10-20T06:50:01.778Z,16.62
2022-10-20T06:52:31.884Z,16.82
2022-10-20T06:55:01.891Z,16.83
2022-10-20T06:57:33.587Z,17.39
2022-10-20T07:00:06.305Z,17.35
2022-10-20T07:02:36.159Z,17.12
2022-10-20T07:05:07.451Z,17.51
2022-10-20T07:07:38.196Z,17.54
2022-10-20T07:10:09.104Z,17.23
2022-10-20T07:12:39.512Z,17.07
2022-10-20T07:15:12.295Z,17.24
2022-10-20T07:17:42.111Z,17.11
2022-10-20T07:20:12.455Z,17.07
2022-10-20T07:22:42.157Z,16.97
2022-10-20T07:25:11.635Z,17.58
2022-10-20T07:27:42.097Z,17.17
2022-10-20T07:30:14.011Z,17.45
2022-10-20T07:32:48.037Z,17.25
2022-10-20T07:35:19.194Z,17.00
2022-10-20T07:37:48.870Z,17.34
2022-10-20T07:40:19.510Z,17.42
2022-10-20T07:42:49.210Z,17.92
2022-10-20T07:45:20.593Z,17.72
2022-10-20T07:47:50.318Z,18.38
2022-10-20T07:50:20.632Z,17.98
2022-10-20T07:52:53.697Z,18.52
2022-10-20T07:55:38.187Z,18.22
2022-10-20T07:58:08.806Z,18.16
2022-10-20T08:03:14.553Z,18.37
2022-10-20T08:05:44.033Z,19.24
2022-10-20T08:22:57.514Z,18.60
2022-10-20T08:25:28.881Z,18.44
2022-10-20T08:30:33.690Z,17.63
2022-10-20T08:33:03.534Z,17.93
2022-10-20T08:35:33.508Z,17.75
2022-10-20T08:38:07.623Z,17.96
2022-10-20T08:40:42.920Z,18.20
2022-10-20T08:43:19.079Z,18.47
2022-10-20T08:45:49.257Z,19.03
2022-10-20T08:48:22.236Z,19.34
2022-10-20T08:50:54.218Z,19.53
2022-10-20T08:53:28.138Z,19.73
2022-10-20T08:55:58.301Z,20.09
2022-10-20T08:58:27.402Z,20.79
2022-10-20T09:00:59.339Z,19.69
2022-10-20T09:03:32.475Z,18.85
2022-10-20T09:06:08.393Z,17.98
2022-10-20T09:08:40.678Z,17.98
2022-10-20T09:11:15.902Z,17.88
2022-10-20T09:13:45.999Z,17.91
2022-10-20T09:16:33.592Z,17.52
2022-10-20T09:19:19.374Z,17.92
2022-10-20T09:21:54.056Z,17.79
2022-10-20T09:24:27.585Z,18.07
2022-10-20T09:26:59.887Z,18.11
2022-10-20T09:29:38.001Z,18.34
2022-10-20T09:35:31.697Z,18.06
2022-10-20T09:38:06.562Z,17.81
2022-10-20T09:40:38.356Z,17.88
2022-10-20T09:43:13.112Z,18.06
2022-10-20T09:45:53.802Z,18.50
2022-10-20T09:48:26.766Z,18.74
2022-10-20T09:50:57.795Z,18.28
2022-10-20T09:53:32.476Z,18.66
2022-10-20T09:56:04.080Z,19.44
2022-10-20T09:58:38.168Z,19.51
2022-10-20T10:01:14.972Z,18.79
2022-10-20T10:03:46.682Z,18.33
2022-10-20T10:06:29.702Z,17.62
2022-10-20T10:09:00.615Z,17.96
2022-10-20T10:11:35.773Z,17.79
2022-10-20T10:14:07.419Z,17.46
2022-10-20T10:16:44.413Z,17.23
2022-10-20T10:19:19.805Z,17.41
2022-10-20T10:21:53.511Z,17.47
2022-10-20T10:24:43.342Z,17.84
2022-10-20T10:27:25.031Z,17.52
2022-10-20T10:29:56.174Z,17.44
2022-10-20T10:32:27.797Z,17.75
2022-10-20T10:35:21.631Z,18.37
2022-10-20T10:37:51.724Z,19.18
2022-10-20T10:40:24.692Z,20.17
2022-10-20T10:43:08.348Z,21.08
2022-10-20T10:45:47.491Z,20.10
2022-10-20T10:48:55.944Z,19.90
2022-10-20T10:51:39.197Z,20.54
2022-10-20T10:54:30.039Z,20.58
2022-10-20T10:57:06.947Z,19.60
2022-10-20T10:59:44.406Z,19.33
2022-10-20T11:02:35.807Z,19.44
2022-10-20T11:05:23.585Z,19.23
2022-10-20T11:08:06.106Z,19.12
2022-10-20T11:10:45.089Z,18.79
2022-10-20T11:13:26.215Z,19.05
2022-10-20T11:16:22.915Z,18.92
2022-10-20T11:19:14.236Z,18.62
2022-10-20T11:21:53.541Z,18.73
2022-10-20T11:24:41.600Z,18.99
2022-10-20T11:27:13.423Z,18.64
2022-10-20T11:29:47.396Z,18.37
2022-10-20T11:32:27.289Z,18.67
2022-10-20T11:35:04.883Z,18.29
2022-10-20T11:52:52.408Z,18.14
2022-10-20T11:55:44.716Z,18.19
2022-10-20T11:58:29.466Z,17.88
2022-10-20T12:01:19.264Z,17.64
2022-10-20T12:04:06.895Z,18.00
2022-10-20T12:06:52.357Z,17.77
2022-10-20T12:10:00.945Z,17.81
2022-10-20T12:12:38.695Z,17.78
2022-10-20T12:15:21.134Z,18.33
2022-10-20T12:17:52.745Z,18.11
2022-10-20T12:20:50.896Z,18.05
2022-10-20T12:24:02.625Z,18.00
2022-10-20T12:27:10.597Z,18.02
2022-10-20T12:30:01.627Z,18.10
2022-10-20T12:33:04.905Z,17.79
2022-10-20T12:36:00.497Z,17.59
2022-10-20T12:39:25.242Z,18.11
2022-10-20T12:42:08.657Z,18.01
2022-10-20T12:44:43.833Z,17.33
2022-10-20T12:47:23.566Z,17.43
2022-10-20T12:49:57.500Z,17.27
2022-10-20T12:52:32.818Z,17.55
2022-10-20T12:55:08.469Z,17.38
2022-10-20T12:57:42.035Z,17.69
2022-10-20T13:00:57.143Z,18.01
2022-10-20T13:03:44.630Z,18.00
2022-10-20T13:06:44.858Z,17.59
2022-10-20T13:09:22.665Z,17.09
2022-10-20T13:12:00.074Z,17.37
2022-10-20T13:14:46.025Z,17.36
2022-10-20T13:17:24.637Z,16.77
2022-10-20T13:20:01.682Z,17.11
2022-10-20T13:22:41.232Z,17.06
2022-10-20T13:25:33.152Z,17.30
2022-10-20T13:28:18.641Z,17.10
2022-10-20T13:31:17.535Z,17.09
2022-10-20T13:34:05.464Z,16.94
2022-10-20T13:36:45.771Z,17.21
2022-10-20T13:39:21.514Z,16.34
2022-10-20T13:42:03.660Z,16.08
2022-10-20T13:44:41.532Z,16.45
2022-10-20T13:47:30.048Z,16.52
2022-10-20T13:50:06.338Z,16.62
2022-10-20T13:52:44.026Z,16.55
2022-10-20T13:55:19.230Z,16.68
2022-10-20T13:57:55.536Z,16.41
2022-10-20T14:00:28.388Z,16.55
2022-10-20T14:03:00.964Z,16.37
2022-10-20T14:05:32.488Z,16.39
2022-10-20T14:08:06.303Z,16.39
2022-10-20T14:10:41.177Z,16.07
2022-10-20T14:13:15.698Z,15.86
2022-10-20T14:15:48.759Z,15.81
2022-10-20T14:18:25.215Z,15.88
2022-10-20T14:21:00.711Z,16.13
2022-10-20T14:23:38.677Z,16.25
2022-10-20T14:26:12.773Z,16.09
2022-10-20T14:28:45.125Z,16.22
2022-10-20T14:31:15.472Z,16.27
2022-10-20T14:33:47.353Z,16.07
2022-10-20T14:36:22.581Z,16.23
2022-10-20T14:38:55.973Z,16.10
2022-10-20T14:41:27.974Z,15.72
2022-10-20T14:44:05.103Z,15.52
2022-10-20T14:46:39.621Z,15.56
2022-10-20T14:49:17.192Z,16.20
2022-10-20T14:51:57.206Z,16.13
2022-10-20T14:57:32.650Z,16.18
2022-10-20T15:00:04.831Z,15.97
2022-10-20T15:02:40.439Z,15.86
2022-10-20T15:05:34.846Z,16.20
2022-10-20T15:08:11.582Z,16.09
2022-10-20T15:10:43.323Z,16.25
2022-10-20T15:13:27.424Z,16.43
2022-10-20T15:15:59.596Z,16.21
2022-10-20T15:18:30.561Z,16.46
2022-10-20T15:30:42.639Z,16.01
2022-10-20T15:33:12.649Z,15.83
2022-10-20T15:35:46.152Z,15.57
2022-10-20T15:38:16.754Z,15.93
2022-10-20T15:40:46.921Z,15.71
2022-10-20T15:43:19.145Z,15.70
2022-10-20T15:45:56.287Z,15.63
2022-10-20T15:48:27.512Z,15.28
2022-10-20T15:50:59.562Z,15.38
2022-10-20T15:53:29.941Z,15.41
2022-10-20T15:55:59.668Z,15.63
2022-10-20T15:58:29.911Z,15.68
2022-10-20T16:01:04.010Z,15.88
2022-10-20T16:03:41.171Z,15.95
2022-10-20T16:06:13.852Z,15.80
2022-10-20T16:08:45.131Z,15.80
2022-10-20T16:11:16.891Z,15.82
2022-10-20T16:13:47.852Z,15.84
2022-10-20T16:16:22.019Z,15.89
2022-10-20T16:18:52.874Z,15.79
2022-10-20T16:21:23.311Z,15.65
2022-10-20T16:23:54.208Z,15.65
2022-10-20T16:26:25.402Z,15.70
2022-10-20T16:28:56.436Z,15.85
2022-10-20T16:31:29.943Z,15.52
2022-10-20T16:34:01.694Z,15.73
2022-10-20T16:36:32.729Z,15.39
2022-10-20T16:39:03.553Z,15.74
2022-10-20T16:41:34.765Z,15.95
2022-10-20T16:44:08.350Z,15.61
2022-10-20T16:46:40.144Z,15.23
2022-10-20T16:49:11.409Z,15.70
2022-10-20T16:51:42.878Z,15.58
2022-10-20T16:54:13.797Z,15.57
2022-10-20T16:56:45.736Z,15.88
2022-10-20T16:59:16.376Z,15.96
2022-10-20T17:01:48.791Z,15.94
2022-10-20T17:04:20.034Z,16.04
2022-10-20T17:06:51.338Z,16.09
2022-10-20T17:09:22.418Z,16.10
2022-10-20T17:11:52.831Z,16.09
2022-10-20T17:14:23.180Z,16.03
2022-10-20T17:16:54.578Z,16.45
2022-10-20T17:19:25.216Z,16.14
2022-10-20T17:21:56.241Z,16.09
2022-10-20T17:24:26.754Z,15.95
2022-10-20T17:26:57.311Z,15.83
2022-10-20T17:29:28.400Z,15.62
2022-10-20T17:32:00.617Z,15.93
2022-10-20T17:34:31.390Z,16.01
2022-10-20T17:37:02.022Z,16.24
2022-10-20T17:39:32.901Z,15.72
2022-10-20T17:42:03.836Z,15.69
2022-10-20T17:44:34.521Z,15.55
2022-10-20T17:47:06.550Z,15.19
2022-10-20T17:49:36.878Z,15.62
2022-10-20T17:52:07.609Z,15.74
2022-10-20T17:54:38.223Z,16.13
2022-10-20T17:57:08.179Z,16.16
2022-10-20T17:59:47.483Z,16.34
2022-10-20T18:02:25.753Z,16.31
2022-10-20T18:04:55.681Z,16.07
2022-10-20T18:07:25.317Z,16.08
2022-10-20T18:09:55.032Z,16.88
2022-10-20T18:12:24.777Z,16.37
2022-10-20T18:14:54.916Z,16.93
2022-10-20T18:17:26.521Z,16.55
2022-10-20T18:20:00.320Z,16.41
2022-10-20T18:22:30.005Z,16.12
2022-10-20T18:25:00.128Z,16.11
2022-10-20T18:27:29.837Z,16.25
2022-10-20T18:29:59.488Z,16.85
2022-10-20T18:32:31.078Z,16.37
2022-10-20T18:35:02.975Z,16.27
2022-10-20T18:37:32.867Z,16.24
2022-10-20T18:40:03.730Z,16.15
2022-10-20T18:42:35.111Z,16.23
2022-10-20T18:45:05.576Z,15.95
2022-10-20T18:47:37.503Z,16.09
2022-10-20T18:50:08.420Z,16.15
2022-10-20T18:52:38.481Z,16.04
2022-10-20T18:55:11.106Z,16.22
2022-10-20T18:57:42.154Z,16.06
2022-10-20T19:00:12.341Z,16.37
2022-10-20T19:02:43.670Z,16.10
2022-10-20T19:05:13.881Z,15.64
2022-10-20T19:07:43.989Z,15.29
2022-10-20T19:10:16.081Z,15.55
2022-10-20T19:12:48.000Z,15.87
2022-10-20T19:15:19.166Z,15.56
2022-10-20T19:17:50.958Z,15.73
2022-10-20T19:20:21.344Z,15.77
2022-10-20T19:22:51.380Z,15.85
2022-10-20T19:25:22.077Z,15.92
2022-10-20T19:27:51.407Z,16.65
2022-10-20T19:32:58.350Z,15.83
2022-10-20T19:35:28.306Z,15.75
2022-10-20T19:37:59.432Z,15.92
2022-10-20T19:40:29.670Z,15.93
2022-10-20T19:42:59.517Z,16.00
2022-10-20T19:45:29.868Z,16.08
2022-10-20T19:48:01.002Z,16.12
2022-10-20T19:50:31.810Z,16.21
2022-10-20T19:53:01.596Z,16.01
2022-10-20T19:55:32.540Z,16.06
2022-10-20T19:58:02.390Z,15.90
2022-10-20T20:00:32.706Z,16.02
2022-10-20T20:03:03.600Z,16.57
2022-10-20T20:05:33.536Z,15.87
2022-10-20T20:08:03.454Z,16.06
2022-10-20T20:10:33.820Z,16.15
2022-10-20T20:13:02.987Z,16.54
2022-10-20T20:15:32.804Z,16.06
2022-10-20T20:18:05.353Z,15.76
2022-10-20T20:20:35.216Z,15.92
2022-10-20T20:23:05.002Z,16.02
2022-10-20T20:25:38.165Z,16.25
2022-10-20T20:28:08.739Z,16.04
2022-10-20T20:30:38.865Z,15.98
2022-10-20T20:33:11.076Z,16.08
2022-10-20T20:35:41.092Z,16.06
2022-10-20T20:38:10.729Z,15.83
2022-10-20T20:40:44.642Z,16.05
2022-10-20T20:43:14.218Z,16.19
2022-10-20T20:45:44.536Z,16.15
2022-10-20T20:48:15.229Z,16.90
2022-10-20T20:50:54.210Z,16.36
2022-10-20T20:53:24.677Z,16.35
2022-10-20T20:55:56.348Z,16.13
2022-10-20T20:58:26.689Z,16.22
2022-10-20T21:01:03.764Z,16.33
2022-10-20T21:03:35.801Z,15.93
2022-10-20T21:06:06.750Z,15.89
2022-10-20T21:08:36.932Z,16.13
2022-10-20T21:11:08.476Z,16.29
2022-10-20T21:13:38.823Z,16.39
2022-10-20T21:16:12.971Z,16.19
2022-10-20T21:18:45.923Z,16.09
2022-10-20T21:21:18.326Z,16.35
2022-10-20T21:23:48.490Z,16.25
2022-10-20T21:26:20.805Z,16.39
2022-10-20T21:28:50.933Z,16.41
2022-10-20T21:31:22.828Z,16.56
2022-10-20T21:33:55.525Z,16.44
2022-10-20T21:36:26.549Z,16.51
2022-10-20T21:38:56.805Z,16.52
2022-10-20T21:41:28.622Z,16.46
2022-10-20T21:44:00.150Z,16.64
2022-10-20T21:46:31.995Z,16.79
2022-10-20T21:49:06.256Z,16.55
2022-10-20T21:51:38.191Z,16.32
2022-10-20T21:54:09.793Z,16.21
2022-10-20T21:56:41.552Z,16.46
2022-10-20T21:59:20.707Z,16.77
2022-10-20T22:01:50.908Z,16.36
2022-10-20T22:07:07.057Z,16.64
2022-10-20T22:09:36.549Z,16.28
2022-10-20T22:12:06.609Z,16.50
2022-10-20T22:14:36.055Z,16.25
2022-10-20T22:26:50.081Z,16.63
2022-10-20T22:29:20.284Z,16.46
2022-10-20T22:31:50.168Z,16.42
2022-10-20T22:34:19.696Z,16.99
2022-10-20T22:36:49.185Z,16.62
2022-10-20T22:39:19.038Z,16.46
2022-10-20T22:41:50.242Z,16.34
2022-10-20T22:44:20.368Z,16.46
2022-10-20T22:46:49.805Z,16.52
2022-10-20T22:49:19.690Z,16.59
2022-10-20T22:51:49.443Z,16.55
2022-10-20T22:54:19.436Z,16.56
2022-10-20T22:56:53.293Z,16.65
2022-10-20T22:59:23.245Z,16.54
2022-10-20T23:01:52.822Z,16.42
2022-10-20T23:04:22.623Z,16.37
2022-10-20T23:06:52.207Z,16.58
2022-10-20T23:09:22.069Z,16.52
2022-10-20T23:11:53.318Z,16.58
2022-10-20T23:14:23.345Z,16.56
2022-10-20T23:16:53.171Z,16.66
2022-10-20T23:19:23.136Z,16.67
2022-10-20T23:21:53.101Z,16.54
2022-10-20T23:24:23.526Z,16.24
2022-10-20T23:26:54.551Z,16.51
2022-10-20T23:29:24.499Z,16.59
2022-10-20T23:31:53.922Z,16.58
2022-10-20T23:34:23.655Z,17.11
2022-10-20T23:36:53.293Z,16.65
2022-10-20T23:39:23.442Z,16.80
2022-10-20T23:41:55.016Z,16.81
2022-10-20T23:44:25.014Z,16.82
2022-10-20T23:46:54.767Z,16.57
2022-10-20T23:49:24.637Z,16.49
2022-10-20T23:51:54.287Z,16.50
2022-10-20T23:54:24.146Z,17.06
2022-10-20T23:56:55.418Z,16.62
2022-10-20T23:59:25.463Z,16.53
